Sponsor Message:
Civil Aviation Forum
My Starred Topics | Profile | New Topic | Forum Index | Help | Search 
Big Mess @ PHX Tonight  
User currently offlineDesertJets From United States of America, joined Feb 2000, 7780 posts, RR: 16
Posted (12 years 2 months 1 week 6 days 2 hours ago) and read 1415 times:

Phoenix, and I mean the entire metro area, got socked with a major storm tonight.

The news is reporting that Sky Harbor hasn't accepted an arrival since 8:15pm MST. There is significant damage on the ground, but the extent will not be known till the morning. Furthermore power is out in terminals 2 and 3 and partially out in terminal 4. It really sounds like quite a mess. So if your travel plans tomorrow involve Phoenix, or any airline with large ops in Phoenix, I would definately check ahead to make sure your plane is on time.


Stop drop and roll will not save you in hell. --- seen on a church marque in rural Virginia
12 replies: All unread, jump to last
 
User currently offlineBoeing 747-311 From United States of America, joined Mar 2001, 795 posts, RR: 0
Reply 1, posted (12 years 2 months 1 week 6 days 2 hours ago) and read 1392 times:

Ya i know the storms really hit hard, i wonder what kinda damage is happened at phx


Come fly with US
User currently offlineN737MC From Canada, joined Oct 2000, 678 posts, RR: 16
Reply 2, posted (12 years 2 months 1 week 6 days 2 hours ago) and read 1368 times:

I wonder if KSDL was impacted as well? All those nice Jetz on the ramo there.

Aaron.


User currently offlineDesertJets From United States of America, joined Feb 2000, 7780 posts, RR: 16
Reply 3, posted (12 years 2 months 1 week 6 days 2 hours ago) and read 1346 times:

Don't know much about Scottsdale, but Channel 15 news reported that a peak gust of 78mph was recorded @ KDVT (Deer Valley).


Stop drop and roll will not save you in hell. --- seen on a church marque in rural Virginia
User currently offlineEA CO AS From United States of America, joined Nov 2001, 13609 posts, RR: 61
Reply 4, posted (12 years 2 months 1 week 6 days 1 hour ago) and read 1310 times:
Support Airliners.net - become a First Class Member!

There's also significant flooding in the Metro Phoenix Area. This won't affect ops at Sky Harbor too much, but the news did report the following:

Many airport roadway signs blown down and blocking major roads in and out of the airport.

Several General Aviation aircraft damaged, including one UA and two HP jets with some damage.

Many aircraft into PHX have diverted to LAS and TUS.

Over TWO INCHES of rain on the ground in an hour; this, in a place that averages under 8 inches of rain a year.



"In this present crisis, government is not the solution to our problem - government IS the problem." - Ronald Reagan
User currently offlineUA744Flagship From , joined Dec 1969, posts, RR:
Reply 5, posted (12 years 2 months 1 week 6 days ago) and read 1301 times:

My friend's dad got stuck there.

His DL JFK-SAN flight made a stop there. Is this technical stop routine?


User currently offlineJmc1975 From Israel, joined Sep 2000, 3280 posts, RR: 15
Reply 6, posted (12 years 2 months 1 week 5 days 23 hours ago) and read 1277 times:

The wind gusts spun an America West 757 and two Airbuses around while parked at the gates, causing severe damage to the aircraft, jetways and ground equipment. Also there are reports on damage to a United 737, two Southwest 737s and two Continental 737s. The north runway was littered with debris, flipped baggage carts as well as baggage. Many trees are uprooted crossing the roadways at Sky Harbor. Even a old sink and toilet seat were lying the entrance ramp. One thing is for sure, this Monday (7/15)will not be a smooth one in Phoenix.



.......
User currently offline4holer From United States of America, joined Feb 2002, 3018 posts, RR: 9
Reply 7, posted (12 years 2 months 1 week 5 days 15 hours ago) and read 1152 times:

The morning news shows had tons of footage. The worst damage appeared to be to the west end of the airport. The east economy lot had a lot of damage. The Swift ramp is a mess and there are some small planes flipped over. The North runway will be closed at least through this morning due to debris on the runway. Also, the tower was saying that they estimated winds to 90 MPH.
I can tell you that I was driving south on I-17 to the Loop 101 East to Scottsdale at about the time of that big gust at Deer Valley and I have NEVER driven through such an intense storm, and I'm a 36 year old east coast guy who has seen a good number of doozies. That wasn't just a gust at Deer Valley either, it was sustained like that. It looked like hurricane footage on the Weather Channel, just unreal!



Ghosts appear and fade away.....................
User currently offlineEA CO AS From United States of America, joined Nov 2001, 13609 posts, RR: 61
Reply 8, posted (12 years 2 months 1 week 5 days 13 hours ago) and read 1070 times:
Support Airliners.net - become a First Class Member!

Another view from the local news helicopters showed several USPS "igloos" that flew from the Air Cargo facility into a long-term parking lot, damaging several vehicles. One such igloo traveled around 150 yards in the air over several six-foot razor wire fences before coming to rest in the lot.

Also, what appeared to be a Kitty Hawk B-727 was pushed backwards across the ramp into a utility pole.



"In this present crisis, government is not the solution to our problem - government IS the problem." - Ronald Reagan
User currently offlineOPNLguy From , joined Dec 1969, posts, RR:
Reply 9, posted (12 years 2 months 1 week 5 days 13 hours ago) and read 1055 times:

From last night...

SPECI KPHX 150359Z 16020G39KT 1 1/2SM +TSRA OVC001 27/21 RMK AO2 PK WND 14028/0359 WSHFT 0343 P0006 $

METAR KPHX 150356Z 16022G39KT 130V200 1 1/4SM +TSRA VV001 27/20 RMK AO2 PK WND 15041/0330 WSHFT 0332 RAB39 SLPNO FQT LTGCGIC TSOHD-NW-NE MOV S P0011 T02720200 $

SPECI KPHX 150345Z 17023G38KT 1SM TSRA VV001 30/19 RMK AO2 PK WND 15041/0330 WSHFT 0327 RAB39 FQT LTGCGIC TSOHD-NW-NE MOV S P0000 $

SPECI KPHX 150329Z COR 15030G40KT 3/4SM TS BLDU OVC001 33/17 A2980 RMK AO2 PK WND 15040/0326 FQT LTGCGIC TS OHD-NW-NE MOV S PRESRR $

SPECI KPHX 150327Z 14031G40KT 1 1/4SM TS HZ FEW001 35/16 A2980 RMK AO2 PK WND 15040/0326 PRESRR $

SPECI KPHX 150325Z 15023G34KT 2SM TS HZ FEW001 37/15 A2979 RMK AO2 PK WND 15034/0325 PRESRR $

METAR KPHX 150256Z 23009KT 10SM TS SCT100CB SCT200 BKN250 41/14 A2974 RMK AO2 TSB47 SLP045 OCNL LTGCGIC TS N MOV S CB N E-SE MOV S SHRA N T04060139 53018 $

SPECI KPHX 150245Z 23010KT 10SM SCT100CB BKN200 41/14 A2973 RMK AO2 CB N E-SE MOV S OCNL LTGCG DSNT N $

SPECI KPHX 150237Z 22010KT 10SM SCT100CB BKN200 41/14 A2972 RMK AO2 CB N E-SE MOV S OCNL LTGCG DSNT N $

METAR KPHX 150156Z 26011KT 10SM FEW120TCU SCT200 BKN250 41/13 A2969 RMK AO2 SLP033 TCU N T04110133 $

TERMINAL FORECASTS
------------------
TAF AMD KPHX 150359Z 150424 16015KT P6SM BKN060CB BKN150 BKN200
TEMPO 0405 VRB30G45KT 1/4SM +TSRA BKN001 OVC007CB
FM0700 11007KT P6SM BKN120 BKN200
FM1200 10007KT P6SM SCT120 SCT200


User currently offlineBeefmoney From United States of America, joined Oct 2000, 1116 posts, RR: 4
Reply 10, posted (12 years 2 months 1 week 5 days 10 hours ago) and read 967 times:

Its was a biiiig mess. I was just down there yesterday, looking at an old mooney that has been sitting at GA for many years, and this morning that same mooney is upside down on the ramp. I am thinking of going down today to take some photos of the damage.

User currently offlineKaitakfan From United States of America, joined Oct 1999, 1588 posts, RR: 6
Reply 11, posted (12 years 2 months 1 week 5 days 9 hours ago) and read 937 times:

For anyone interested, Scottsdale airport seemed to be in good shape after the storm. I was flying out of SDL early this morning. The only thing I noticed was the planes and surrounding areas completely filthy after the storm last night. Besides dirty planes, SDL was lucky, unless there was something I missed. By the way, When I was driving home on north Scottsdale road last night, the storm hit so hard I had to pull over. I could hardly make out the cars infront of me. Never been in a storm like that here in AZ before!

Cheers!
Brian


User currently offlineBeefmoney From United States of America, joined Oct 2000, 1116 posts, RR: 4
Reply 12, posted (12 years 1 month 4 weeks 1 day 11 hours ago) and read 843 times:

Even though this thread is pretty old, I thought I would mention to anyone interested in the PHX area that if you head on down to Deer Valley (KDVT) and look in the area where Westwind Aviation keeps there aircraft, there is a Cessna Grand Caravan that was apperantly tossed all the way down the ramp during the storm. (That was what the Westwind dispatcher told me). It has half of the right wing dangling in the wind (seriously, it is hanging on by just a peice of metal, and it blows around in the wind,) The vertical stabilizer is sheared off, the prop is bent, the left wing is bent down so it is about 5 feet above the ground, the whole aircraft is leaning to the left, and almost every window, including the windscreen, is broken.

I wsa just down there taking photos of it and I will be uploading them in a few days. If your bored and you want to see something interesting, go see that caravan. I just wish I was there during the storm to see it tumble all the way down the airport! Im glad im not the guy who forgot to tie it down. (thats exaclty what happened.)


Top Of Page
Forum Index

This topic is archived and can not be replied to any more.

Printer friendly format

Similar topics:More similar topics...
Big Pinnacle News Tonight? posted Fri Feb 17 2006 02:00:16 by Flyf15
EZS Big Mess At GVA... posted Sun Aug 11 2002 20:29:41 by Too low
PHX Plans Big Changes posted Sun Dec 10 2006 17:27:35 by Phxplanes
US/HP PHX Hub = Mess posted Tue Aug 22 2006 07:04:23 by RyanAFAMSP
Big Open House, Airliner Tour @ WGA 3-11 Phx Area posted Thu Mar 9 2006 21:58:21 by Redneckslim
JFK Is A Mess Tonight (part 2) posted Tue Feb 14 2006 02:35:39 by LTU932
JFK Is A Mess Tonight posted Mon Feb 13 2006 06:04:29 by RJpieces
Mess In Detroit Tonight posted Mon Feb 21 2005 04:36:48 by Nwafflyer
PHX/LAS Problems Tonight? posted Tue Feb 17 2004 06:36:24 by RNOcommctr
PHX Runway Use posted Tue Mar 20 2007 00:51:51 by Phxtravelboy